Time;durP1;ratioP1;P1;durP2;ratioP2;P2;SDS_P1;SDS_P2;PMS_P1;PMS_P2;Temp;Humidity;BMP_temperature;BMP_pressure;BME280_temperature;BME280_humidity;BME280_pressure;Samples;Min_cycle;Max_cycle;Signal;HPM_P1;HPM_P2
2021/12/08 00:01:26;;;;;;;25.23;23.00;;;4.40;99.90;;;;;;5056516;28;20549;-69
2021/12/08 00:03:53;;;;;;;23.50;21.90;;;4.40;99.90;;;;;;5055489;28;20491;-69
2021/12/08 00:06:21;;;;;;;24.50;22.77;;;4.40;99.90;;;;;;5056633;28;20497;-70
2021/12/08 00:09:00;;;;;;;24.80;23.00;;;4.30;99.90;;;;;;5057138;28;20464;-69
2021/12/08 00:14:13;;;;;;;23.87;22.17;;;4.40;99.90;;;;;;5050526;28;20471;-71
2021/12/08 00:16:40;;;;;;;24.97;22.83;;;4.40;99.90;;;;;;5053940;28;20499;-68
2021/12/08 00:19:07;;;;;;;25.10;22.60;;;4.40;99.90;;;;;;5055963;28;20463;-71
2021/12/08 00:21:42;;;;;;;23.20;21.70;;;4.40;99.90;;;;;;5054074;28;20981;-70
2021/12/08 00:24:09;;;;;;;23.10;21.50;;;4.40;99.90;;;;;;5056627;28;20589;-71
2021/12/08 00:26:37;;;;;;;25.43;23.40;;;4.50;99.90;;;;;;5054117;28;20464;-69
2021/12/08 00:29:05;;;;;;;24.13;22.17;;;4.50;99.90;;;;;;5053068;28;20464;-71
2021/12/08 00:31:31;;;;;;;24.73;22.80;;;4.50;99.90;;;;;;5056417;28;20471;-69
2021/12/08 00:33:58;;;;;;;23.70;21.90;;;4.60;99.90;;;;;;5056329;28;20965;-70
2021/12/08 00:36:31;;;;;;;23.87;22.07;;;4.50;99.90;;;;;;5053932;28;20468;-69
2021/12/08 00:38:58;;;;;;;24.37;22.40;;;4.50;99.90;;;;;;5060856;28;20459;-71
2021/12/08 00:41:24;;;;;;;23.80;22.10;;;4.60;99.90;;;;;;5049899;28;20452;-70
2021/12/08 00:43:53;;;;;;;24.53;22.83;;;4.70;99.90;;;;;;5049275;28;20499;-69
2021/12/08 00:46:20;;;;;;;23.90;21.93;;;4.60;99.90;;;;;;5049949;28;20466;-69
2021/12/08 00:48:49;;;;;;;24.70;22.90;;;4.70;99.90;;;;;;5052953;28;20452;-69
2021/12/08 00:54:38;;;;;;;26.00;23.20;;;4.70;99.90;;;;;;5052845;28;20455;-69
2021/12/08 00:57:05;;;;;;;24.30;22.60;;;4.70;99.90;;;;;;5051508;28;20468;-69
2021/12/08 00:59:34;;;;;;;23.40;21.70;;;4.80;99.90;;;;;;5051754;28;20470;-69
2021/12/08 01:02:02;;;;;;;22.80;21.30;;;4.80;99.90;;;;;;5051907;28;20452;-69
2021/12/08 01:04:30;;;;;;;23.63;21.57;;;4.80;99.90;;;;;;5051803;28;20503;-69
2021/12/08 01:06:58;;;;;;;23.93;21.70;;;4.80;99.90;;;;;;5052634;28;20448;-69
2021/12/08 01:09:25;;;;;;;23.50;21.80;;;4.90;99.90;;;;;;5051975;28;20456;-72
2021/12/08 01:11:52;;;;;;;23.37;21.47;;;4.80;99.90;;;;;;5051544;28;20456;-69
2021/12/08 01:14:19;;;;;;;22.97;21.17;;;4.90;99.90;;;;;;5051736;28;20483;-70
2021/12/08 01:16:48;;;;;;;23.23;21.10;;;4.90;99.90;;;;;;5052318;28;20444;-70
2021/12/08 01:19:15;;;;;;;22.73;21.03;;;4.90;99.90;;;;;;5052077;28;20456;-70
2021/12/08 01:25:05;;;;;;;22.50;21.10;;;5.00;99.90;;;;;;5050998;28;20851;-70
2021/12/08 01:27:33;;;;;;;22.50;20.80;;;5.00;99.90;;;;;;5051471;28;20535;-71
2021/12/08 01:30:00;;;;;;;21.40;20.10;;;5.00;99.90;;;;;;5051602;28;20456;-72
2021/12/08 01:32:28;;;;;;;21.10;19.80;;;5.00;99.90;;;;;;5051236;28;20456;-70
2021/12/08 01:34:55;;;;;;;22.10;20.50;;;5.10;99.90;;;;;;5051584;28;20546;-72
2021/12/08 01:37:22;;;;;;;22.83;21.00;;;5.10;99.90;;;;;;5052022;28;21010;-72
2021/12/08 01:39:49;;;;;;;22.27;20.80;;;5.20;99.90;;;;;;5053151;28;20486;-73
2021/12/08 01:42:24;;;;;;;23.20;21.40;;;5.20;99.90;;;;;;5055272;28;20462;-72
2021/12/08 01:47:37;;;;;;;21.67;20.23;;;5.20;99.90;;;;;;5053311;28;20483;-72
2021/12/08 01:50:06;;;;;;;21.90;20.60;;;5.20;99.90;;;;;;5056610;28;20549;-71
2021/12/08 01:52:33;;;;;;;22.20;20.70;;;5.30;99.90;;;;;;5058367;28;20468;-70
2021/12/08 01:55:00;;;;;;;21.93;20.50;;;5.30;99.90;;;;;;5049553;28;20462;-72
2021/12/08 01:57:27;;;;;;;22.10;20.40;;;5.30;99.90;;;;;;5054194;28;20474;-71
2021/12/08 01:59:54;;;;;;;21.93;20.40;;;5.30;99.90;;;;;;5052623;28;20459;-70
2021/12/08 02:02:21;;;;;;;22.57;20.93;;;5.30;99.90;;;;;;5052908;28;20466;-72
2021/12/08 02:04:50;;;;;;;21.87;20.27;;;5.40;99.90;;;;;;5059802;28;20483;-72
2021/12/08 02:07:17;;;;;;;21.33;19.70;;;5.30;99.90;;;;;;5056957;28;20460;-71
2021/12/08 02:09:43;;;;;;;22.40;20.80;;;5.40;99.90;;;;;;5053319;28;20996;-72
2021/12/08 02:12:11;;;;;;;22.80;21.00;;;5.30;99.90;;;;;;5056224;28;20468;-70
2021/12/08 02:14:39;;;;;;;21.90;20.43;;;5.30;99.90;;;;;;5065764;28;20454;-72
2021/12/08 02:17:10;;;;;;;22.73;21.13;;;5.30;99.90;;;;;;5057806;28;20461;-71
2021/12/08 02:19:38;;;;;;;24.07;22.10;;;5.20;99.90;;;;;;5055664;28;20467;-70
2021/12/08 02:22:06;;;;;;;22.53;21.13;;;5.20;99.90;;;;;;5053600;28;20459;-72
2021/12/08 02:24:34;;;;;;;22.50;21.00;;;5.20;99.90;;;;;;5051998;28;20511;-71
2021/12/08 02:27:00;;;;;;;22.33;20.93;;;5.20;99.90;;;;;;5062301;28;20452;-69
2021/12/08 02:29:36;;;;;;;23.00;21.23;;;5.20;99.90;;;;;;5055355;28;20464;-69
2021/12/08 02:32:10;;;;;;;21.80;20.40;;;5.20;99.90;;;;;;5053027;28;20574;-71
2021/12/08 02:48:29;;;;;;;22.00;19.87;;;5.10;99.90;;;;;;5060539;28;20614;-68
2021/12/08 02:50:57;;;;;;;22.00;20.40;;;5.10;99.90;;;;;;5051628;28;20996;-69
2021/12/08 02:53:25;;;;;;;21.73;20.03;;;5.10;99.90;;;;;;5055951;28;20469;-72
2021/12/08 02:55:52;;;;;;;21.93;20.13;;;5.10;99.90;;;;;;5058152;28;20506;-71
2021/12/08 02:58:20;;;;;;;21.90;20.03;;;5.20;99.90;;;;;;5059892;28;20809;-69
2021/12/08 03:00:50;;;;;;;22.00;20.40;;;5.20;99.90;;;;;;5058758;28;20464;-70
2021/12/08 03:03:18;;;;;;;21.97;20.47;;;5.20;99.90;;;;;;5061474;28;20463;-71
2021/12/08 03:05:46;;;;;;;20.53;19.03;;;5.30;99.90;;;;;;5051820;28;20497;-71
2021/12/08 03:08:13;;;;;;;21.80;20.07;;;5.20;99.90;;;;;;5059838;28;20466;-71
2021/12/08 03:10:44;;;;;;;22.00;20.50;;;5.20;99.90;;;;;;5057974;28;20460;-70
2021/12/08 03:13:12;;;;;;;23.27;21.50;;;5.20;99.90;;;;;;5058128;28;20458;-72
2021/12/08 03:15:40;;;;;;;23.50;21.90;;;5.20;99.90;;;;;;5060529;28;20803;-72
2021/12/08 03:18:07;;;;;;;23.27;21.63;;;5.20;99.90;;;;;;5061104;28;21191;-72
2021/12/08 03:20:40;;;;;;;23.37;21.87;;;5.10;99.90;;;;;;5056582;28;20950;-69
2021/12/08 03:23:09;;;;;;;22.63;21.13;;;5.10;99.90;;;;;;5059151;28;20569;-69
2021/12/08 03:25:39;;;;;;;21.70;20.17;;;5.40;99.90;;;;;;5063076;28;20923;-69
2021/12/08 03:28:14;;;;;;;22.50;20.80;;;5.60;99.90;;;;;;5060463;28;20467;-71
2021/12/08 03:30:54;;;;;;;21.87;20.23;;;5.70;99.90;;;;;;5054849;28;20468;-71
2021/12/08 03:33:21;;;;;;;21.63;19.83;;;5.80;99.90;;;;;;5061014;28;20465;-72
2021/12/08 03:35:49;;;;;;;21.70;19.80;;;5.90;99.90;;;;;;5062187;28;20497;-69
2021/12/08 03:38:16;;;;;;;21.30;19.80;;;6.00;99.90;;;;;;5058671;28;21016;-70
2021/12/08 03:40:43;;;;;;;22.23;20.10;;;6.10;99.90;;;;;;5056109;28;20487;-70
2021/12/08 03:43:13;;;;;;;20.57;18.77;;;6.20;99.90;;;;;;5053382;28;20539;-69
2021/12/08 03:45:44;;;;;;;21.13;19.50;;;6.20;99.90;;;;;;5056429;28;20490;-70
2021/12/08 03:48:14;;;;;;;21.60;19.83;;;6.20;99.90;;;;;;5060052;28;20468;-72
2021/12/08 03:50:43;;;;;;;21.27;19.10;;;6.20;99.90;;;;;;5051372;28;20468;-68
2021/12/08 03:53:12;;;;;;;20.37;18.50;;;6.30;99.90;;;;;;5056913;28;20460;-69
2021/12/08 03:55:40;;;;;;;20.60;18.80;;;6.30;99.90;;;;;;5056767;28;21078;-71
2021/12/08 03:58:07;;;;;;;20.10;18.23;;;6.30;99.90;;;;;;5055733;28;20472;-72
2021/12/08 04:00:36;;;;;;;20.40;18.80;;;6.30;99.90;;;;;;5055215;28;20472;-70
2021/12/08 04:03:04;;;;;;;18.13;16.80;;;6.30;99.90;;;;;;5058514;28;20479;-72
2021/12/08 04:05:43;;;;;;;19.60;17.87;;;6.30;99.90;;;;;;5057922;28;20523;-70
2021/12/08 04:08:16;;;;;;;19.30;17.33;;;6.30;99.90;;;;;;5057287;28;20934;-68
2021/12/08 04:10:43;;;;;;;19.30;17.80;;;6.20;99.90;;;;;;5056610;28;20464;-69
2021/12/08 04:13:10;;;;;;;19.93;18.30;;;6.10;99.90;;;;;;5060236;28;20463;-68
2021/12/08 04:15:38;;;;;;;20.30;17.80;;;6.10;99.90;;;;;;5054500;28;20460;-70
2021/12/08 04:18:06;;;;;;;19.67;18.10;;;6.00;99.90;;;;;;5061232;28;20550;-69
2021/12/08 04:20:39;;;;;;;19.40;17.90;;;6.00;99.90;;;;;;5054181;28;20463;-71
2021/12/08 04:23:08;;;;;;;19.27;17.87;;;6.10;99.90;;;;;;5056032;28;20482;-70
2021/12/08 04:25:38;;;;;;;20.97;17.67;;;6.10;99.90;;;;;;5053522;28;21179;-69
2021/12/08 04:28:08;;;;;;;17.60;16.33;;;6.10;99.90;;;;;;5055443;28;20848;-70
2021/12/08 04:30:43;;;;;;;18.00;16.70;;;6.20;99.90;;;;;;5059480;28;20455;-70
2021/12/08 04:33:11;;;;;;;22.13;17.20;;;6.10;99.90;;;;;;5055810;28;20463;-70
2021/12/08 04:35:40;;;;;;;19.27;17.37;;;6.10;99.90;;;;;;5060367;28;20466;-70
2021/12/08 04:38:11;;;;;;;19.07;17.63;;;6.10;99.90;;;;;;5056574;28;20538;-72
2021/12/08 04:40:50;;;;;;;18.73;17.13;;;6.00;99.90;;;;;;5057180;28;20483;-72
2021/12/08 04:43:24;;;;;;;17.83;16.50;;;6.00;99.90;;;;;;5051979;28;20559;-68
2021/12/08 04:46:03;;;;;;;18.33;16.70;;;6.00;99.90;;;;;;5057041;28;20994;-71
2021/12/08 04:48:47;;;;;;;19.13;17.10;;;5.90;99.90;;;;;;5050844;28;20550;-70
2021/12/08 04:51:35;;;;;;;18.53;16.60;;;5.90;99.90;;;;;;5056967;28;20645;-69
2021/12/08 05:02:35;;;;;;;19.30;15.97;;;5.70;99.90;;;;;;5052122;28;20534;-70
2021/12/08 05:05:17;;;;;;;17.10;16.07;;;5.70;99.90;;;;;;5054922;28;20483;-72
2021/12/08 05:07:53;;;;;;;30.13;16.40;;;5.60;99.90;;;;;;5054246;28;20459;-72
2021/12/08 05:10:25;;;;;;;17.70;16.07;;;5.60;99.90;;;;;;5049601;28;20495;-72
2021/12/08 05:12:52;;;;;;;17.90;16.20;;;5.60;99.90;;;;;;5058941;28;20495;-69
2021/12/08 05:15:23;;;;;;;19.10;16.90;;;5.60;99.90;;;;;;5051091;28;20696;-70
2021/12/08 05:17:56;;;;;;;24.47;16.63;;;5.40;99.90;;;;;;5058139;28;20455;-72
2021/12/08 05:20:32;;;;;;;18.70;17.40;;;5.30;99.90;;;;;;5058822;28;20460;-71
2021/12/08 05:23:05;;;;;;;17.80;15.97;;;5.30;99.90;;;;;;5056028;28;20454;-69
2021/12/08 05:25:34;;;;;;;18.87;17.13;;;5.30;99.90;;;;;;5055317;28;20482;-72
2021/12/08 05:28:05;;;;;;;18.53;16.83;;;5.30;99.90;;;;;;5057831;28;20451;-71
2021/12/08 05:30:37;;;;;;;18.07;16.07;;;5.30;99.90;;;;;;5061185;28;20455;-69
2021/12/08 05:33:06;;;;;;;17.63;15.90;;;5.40;99.90;;;;;;5055920;28;20450;-72
2021/12/08 05:35:34;;;;;;;17.03;15.67;;;5.40;99.90;;;;;;5053402;28;20467;-70
2021/12/08 05:38:01;;;;;;;16.90;15.70;;;5.40;99.90;;;;;;5059192;28;20467;-71
2021/12/08 05:40:33;;;;;;;16.20;15.10;;;5.40;99.90;;;;;;5058217;28;20984;-69
2021/12/08 05:43:01;;;;;;;17.00;15.47;;;5.40;99.90;;;;;;5060534;28;20461;-68
2021/12/08 05:45:28;;;;;;;16.37;15.10;;;5.40;99.90;;;;;;5052574;28;20527;-69
2021/12/08 05:47:56;;;;;;;17.23;15.53;;;5.40;99.90;;;;;;5056679;28;20543;-71
2021/12/08 05:50:29;;;;;;;16.30;15.20;;;5.50;99.90;;;;;;5048309;28;21029;-69
2021/12/08 05:52:56;;;;;;;16.60;15.00;;;5.50;99.90;;;;;;5054663;28;20468;-69
2021/12/08 05:55:23;;;;;;;15.83;14.70;;;5.50;99.90;;;;;;5051726;28;20468;-71
2021/12/08 05:57:50;;;;;;;16.60;14.87;;;5.50;99.90;;;;;;5051906;28;20459;-71
2021/12/08 06:00:23;;;;;;;15.17;14.07;;;5.50;99.90;;;;;;5059541;28;20464;-72
2021/12/08 06:02:51;;;;;;;16.70;15.43;;;5.50;99.90;;;;;;5050564;28;20496;-69
2021/12/08 06:05:19;;;;;;;16.97;15.60;;;5.40;99.90;;;;;;5056051;28;20574;-68
2021/12/08 06:07:48;;;;;;;21.60;15.30;;;5.40;99.90;;;;;;5058132;28;20463;-71
2021/12/08 06:10:18;;;;;;;15.53;14.37;;;5.40;99.90;;;;;;5053446;28;20482;-71
2021/12/08 06:12:46;;;;;;;16.33;15.20;;;5.30;99.90;;;;;;5050334;28;20469;-69
2021/12/08 06:15:14;;;;;;;19.90;15.07;;;5.30;99.90;;;;;;5050420;28;20495;-71
2021/12/08 06:17:42;;;;;;;16.90;15.30;;;5.40;99.90;;;;;;5051841;28;20467;-69
2021/12/08 06:20:12;;;;;;;16.40;15.00;;;5.40;99.90;;;;;;5049384;28;20455;-71
2021/12/08 06:22:40;;;;;;;15.93;14.57;;;5.50;99.90;;;;;;5051421;28;20451;-71
2021/12/08 06:25:10;;;;;;;15.23;14.23;;;5.50;99.90;;;;;;5056416;28;20463;-72
2021/12/08 06:27:37;;;;;;;15.50;14.20;;;5.50;99.90;;;;;;5048689;28;20487;-70
2021/12/08 06:30:07;;;;;;;14.80;13.90;;;5.60;99.90;;;;;;5050078;28;20833;-71
2021/12/08 06:32:34;;;;;;;15.10;14.10;;;5.60;99.90;;;;;;5057608;28;20462;-68
2021/12/08 06:35:05;;;;;;;15.33;14.13;;;5.50;99.90;;;;;;5056494;28;20463;-68
2021/12/08 06:37:36;;;;;;;16.00;14.80;;;5.50;99.90;;;;;;5061522;28;20823;-71
2021/12/08 06:40:12;;;;;;;15.57;14.37;;;5.60;99.90;;;;;;5060635;28;20490;-68
2021/12/08 06:42:42;;;;;;;15.30;14.30;;;5.60;99.90;;;;;;5053829;28;20459;-71
2021/12/08 06:45:13;;;;;;;15.10;13.90;;;5.60;99.90;;;;;;5065652;28;20486;-71
2021/12/08 06:47:40;;;;;;;16.00;14.80;;;5.60;99.90;;;;;;5052958;28;20460;-71
2021/12/08 06:50:13;;;;;;;17.33;15.73;;;5.60;99.90;;;;;;5056337;28;20472;-72
2021/12/08 06:52:40;;;;;;;15.47;14.20;;;5.60;99.90;;;;;;5055942;28;20456;-69
2021/12/08 06:55:13;;;;;;;15.87;14.70;;;5.50;99.90;;;;;;5056325;28;20467;-68
2021/12/08 06:57:44;;;;;;;17.27;15.43;;;5.40;99.90;;;;;;5055564;28;20467;-70
2021/12/08 07:00:21;;;;;;;16.40;15.07;;;5.40;99.90;;;;;;5057640;28;20575;-69
2021/12/08 07:03:04;;;;;;;16.07;14.70;;;5.30;99.90;;;;;;5058586;28;20463;-71
2021/12/08 07:06:05;;;;;;;16.80;15.40;;;5.20;99.90;;;;;;5058412;28;21117;-72
2021/12/08 07:08:30;;;;;;;16.13;15.10;;;5.20;99.90;;;;;;5055954;28;20448;-72
2021/12/08 07:10:59;;;;;;;17.07;15.47;;;5.00;99.90;;;;;;5056885;28;20467;-70
2021/12/08 07:13:30;;;;;;;16.07;14.77;;;5.00;99.90;;;;;;5056345;28;20462;-69
2021/12/08 07:16:01;;;;;;;16.33;14.97;;;5.10;99.90;;;;;;5061601;28;21160;-71
2021/12/08 07:18:36;;;;;;;17.03;15.73;;;5.00;99.90;;;;;;5057912;28;20506;-71
2021/12/08 07:21:05;;;;;;;16.33;15.10;;;5.00;99.90;;;;;;5062198;28;20466;-72
2021/12/08 07:23:36;;;;;;;19.03;17.13;;;5.00;99.90;;;;;;5057393;28;20472;-69
2021/12/08 07:26:09;;;;;;;16.77;15.37;;;5.00;99.90;;;;;;5055423;28;20480;-68
2021/12/08 07:28:39;;;;;;;16.53;15.20;;;5.00;99.90;;;;;;5054007;28;20467;-69
2021/12/08 07:31:11;;;;;;;16.90;15.47;;;4.90;99.90;;;;;;5053043;28;20459;-70
2021/12/08 07:33:38;;;;;;;17.27;15.67;;;4.90;99.90;;;;;;5048217;28;20444;-70
2021/12/08 07:36:09;;;;;;;16.33;15.10;;;4.80;99.90;;;;;;5054333;28;20556;-72
2021/12/08 07:38:37;;;;;;;19.87;16.20;;;4.70;99.90;;;;;;5055057;28;20534;-70
2021/12/08 07:41:10;;;;;;;18.03;16.60;;;4.70;99.90;;;;;;5057324;28;20821;-70
2021/12/08 07:43:41;;;;;;;18.70;16.90;;;4.60;99.90;;;;;;5054719;28;20565;-68
2021/12/08 07:46:13;;;;;;;19.80;18.10;;;4.70;99.90;;;;;;5062637;28;20698;-68
2021/12/08 07:48:45;;;;;;;17.63;16.30;;;4.70;99.90;;;;;;5059159;28;20556;-71
2021/12/08 07:51:18;;;;;;;20.47;18.77;;;4.70;99.90;;;;;;5053242;28;20456;-68
2021/12/08 07:53:45;;;;;;;24.57;21.80;;;4.60;99.90;;;;;;5056271;28;20771;-72
2021/12/08 07:56:18;;;;;;;21.97;20.07;;;4.70;99.90;;;;;;5055491;28;20462;-69
2021/12/08 07:58:49;;;;;;;25.33;20.40;;;4.60;99.90;;;;;;5057548;28;20472;-69
2021/12/08 08:01:19;;;;;;;19.43;17.90;;;4.60;99.90;;;;;;5057530;28;20694;-70
2021/12/08 08:03:47;;;;;;;19.37;17.77;;;4.60;99.90;;;;;;5060540;28;20473;-70
2021/12/08 08:06:18;;;;;;;19.27;17.73;;;4.60;99.90;;;;;;5049473;28;20487;-69
2021/12/08 08:08:45;;;;;;;24.03;17.97;;;4.70;99.90;;;;;;5052951;28;20467;-69
2021/12/08 08:11:18;;;;;;;31.13;22.90;;;4.80;99.90;;;;;;5052049;28;20475;-68
2021/12/08 08:13:45;;;;;;;24.20;21.57;;;4.80;99.90;;;;;;5057248;28;20472;-70
2021/12/08 08:16:15;;;;;;;18.93;17.50;;;4.90;99.90;;;;;;5058887;28;20547;-72
2021/12/08 08:18:47;;;;;;;33.20;25.50;;;4.90;99.90;;;;;;5059916;28;20448;-68
2021/12/08 08:21:17;;;;;;;17.77;15.90;;;5.00;99.90;;;;;;5058327;28;20463;-68
2021/12/08 08:23:45;;;;;;;20.87;18.97;;;5.00;99.90;;;;;;5057793;28;21158;-69
2021/12/08 08:26:15;;;;;;;17.33;15.83;;;5.10;99.90;;;;;;5058103;28;20960;-68
2021/12/08 08:28:47;;;;;;;24.37;18.60;;;5.20;99.90;;;;;;5056934;28;20467;-69
2021/12/08 08:31:19;;;;;;;16.47;15.17;;;5.10;99.90;;;;;;5053046;28;20459;-70
2021/12/08 08:33:46;;;;;;;19.50;17.73;;;5.20;99.90;;;;;;5058206;28;20520;-70
2021/12/08 08:36:17;;;;;;;19.67;17.97;;;5.20;99.90;;;;;;5058841;28;20472;-71
2021/12/08 08:38:47;;;;;;;28.43;25.23;;;5.20;99.90;;;;;;5056365;28;20467;-69
2021/12/08 08:41:22;;;;;;;20.97;18.60;;;5.20;99.90;;;;;;5057438;28;20478;-68
2021/12/08 08:43:50;;;;;;;41.20;26.57;;;5.30;99.90;;;;;;5053306;28;20523;-70
2021/12/08 08:46:20;;;;;;;50.00;34.43;;;5.30;99.90;;;;;;5056337;28;20483;-68
2021/12/08 08:48:51;;;;;;;27.40;22.87;;;5.20;99.90;;;;;;5055991;28;20835;-69
2021/12/08 08:51:21;;;;;;;23.47;20.70;;;5.20;99.90;;;;;;5060600;28;20455;-73
2021/12/08 08:53:52;;;;;;;22.30;20.03;;;5.30;99.90;;;;;;5055808;28;20463;-69
2021/12/08 08:56:23;;;;;;;22.43;20.07;;;5.30;99.90;;;;;;5058054;28;20460;-69
2021/12/08 08:58:54;;;;;;;23.03;20.90;;;5.30;99.90;;;;;;5049760;28;20460;-72
2021/12/08 09:01:24;;;;;;;21.77;19.80;;;5.30;99.90;;;;;;5054701;28;20466;-68
2021/12/08 09:03:55;;;;;;;23.00;21.10;;;5.40;99.90;;;;;;5051040;28;20468;-68
2021/12/08 09:06:28;;;;;;;20.27;18.17;;;5.50;99.90;;;;;;5052532;28;20490;-68
2021/12/08 09:08:55;;;;;;;19.87;18.37;;;5.70;99.90;;;;;;5045843;28;20479;-68
2021/12/08 09:11:26;;;;;;;18.23;15.57;;;5.70;99.90;;;;;;5054027;28;20461;-68
2021/12/08 09:14:00;;;;;;;16.90;15.67;;;5.90;99.90;;;;;;5050229;28;20468;-68
2021/12/08 09:16:30;;;;;;;17.33;15.90;;;5.90;99.90;;;;;;5053513;28;21232;-68
2021/12/08 09:19:03;;;;;;;15.87;14.60;;;6.00;99.90;;;;;;5043020;28;20479;-68
2021/12/08 09:21:38;;;;;;;17.47;15.73;;;6.10;99.90;;;;;;5049818;28;20464;-68
2021/12/08 09:24:09;;;;;;;15.70;14.70;;;6.10;99.90;;;;;;5050850;28;20496;-68
2021/12/08 09:26:45;;;;;;;16.67;15.67;;;6.20;99.90;;;;;;5045675;28;20483;-68
2021/12/08 09:29:15;;;;;;;16.73;15.03;;;6.30;99.90;;;;;;5045021;28;20849;-69
2021/12/08 09:31:47;;;;;;;15.40;14.40;;;6.40;99.90;;;;;;5049259;28;21235;-68
2021/12/08 09:34:21;;;;;;;16.63;15.03;;;6.50;99.90;;;;;;5054129;28;20460;-68
2021/12/08 09:36:51;;;;;;;15.87;14.70;;;6.60;99.90;;;;;;5046460;28;20479;-68
2021/12/08 09:39:24;;;;;;;16.23;14.70;;;6.60;99.90;;;;;;5051236;28;20468;-68
2021/12/08 09:41:56;;;;;;;18.20;15.27;;;6.70;99.90;;;;;;5047856;28;20476;-68
2021/12/08 09:44:27;;;;;;;16.47;15.27;;;6.70;99.90;;;;;;5053138;28;20494;-68
2021/12/08 09:46:55;;;;;;;15.70;14.70;;;6.70;99.90;;;;;;5052009;28;21198;-68
2021/12/08 09:49:28;;;;;;;17.93;16.10;;;6.80;99.90;;;;;;5050476;28;20585;-68
2021/12/08 09:51:59;;;;;;;16.73;15.43;;;6.80;99.90;;;;;;5047905;28;21037;-68
2021/12/08 09:54:27;;;;;;;16.40;15.13;;;6.70;99.90;;;;;;5051258;28;20472;-68
2021/12/08 09:56:55;;;;;;;19.83;16.00;;;6.80;99.90;;;;;;5047140;28;21003;-68
2021/12/08 09:59:23;;;;;;;18.13;16.40;;;6.90;99.90;;;;;;5049273;28;20473;-68
2021/12/08 10:01:51;;;;;;;15.90;14.90;;;6.90;99.90;;;;;;5059702;28;20466;-68
2021/12/08 10:04:19;;;;;;;17.73;16.47;;;7.00;99.90;;;;;;5046084;28;21049;-68
2021/12/08 10:06:49;;;;;;;16.30;15.10;;;7.00;99.90;;;;;;5046656;28;20496;-68
2021/12/08 10:09:17;;;;;;;17.20;15.83;;;7.10;99.90;;;;;;5046342;28;20865;-68
2021/12/08 10:11:44;;;;;;;17.97;16.80;;;7.20;99.90;;;;;;5045534;28;20769;-68
2021/12/08 10:14:13;;;;;;;18.10;16.60;;;7.20;99.90;;;;;;5046643;28;21135;-68
2021/12/08 10:16:41;;;;;;;15.67;14.60;;;7.30;99.90;;;;;;5053150;28;21232;-68
2021/12/08 10:19:08;;;;;;;16.70;15.13;;;7.20;99.90;;;;;;5048397;28;20501;-68
2021/12/08 10:21:38;;;;;;;16.60;15.20;;;7.30;99.90;;;;;;5049576;28;20474;-68
2021/12/08 10:24:16;;;;;;;18.77;17.27;;;7.10;99.90;;;;;;5046718;28;20842;-68
2021/12/08 10:26:44;;;;;;;19.30;17.70;;;7.00;99.90;;;;;;5043365;28;20469;-68
2021/12/08 10:29:12;;;;;;;23.83;21.73;;;7.10;99.90;;;;;;5045315;28;20894;-68
2021/12/08 10:31:44;;;;;;;17.77;16.30;;;7.10;99.90;;;;;;5054514;28;20469;-69
2021/12/08 10:34:22;;;;;;;18.00;16.20;;;7.30;99.90;;;;;;5046162;28;20513;-68
2021/12/08 10:36:53;;;;;;;17.40;16.10;;;7.20;99.90;;;;;;5048466;28;20497;-68
2021/12/08 10:39:27;;;;;;;17.53;16.20;;;7.20;99.90;;;;;;5044948;28;20466;-68
2021/12/08 10:42:02;;;;;;;33.87;23.90;;;7.10;99.90;;;;;;5049097;28;21081;-68
2021/12/08 10:44:39;;;;;;;46.00;26.67;;;7.30;99.90;;;;;;5049348;28;20554;-68
2021/12/08 10:47:07;;;;;;;20.53;18.53;;;7.40;99.90;;;;;;5047553;28;20503;-68
2021/12/08 10:55:20;;;;;;;20.30;18.63;;;7.30;99.90;;;;;;5045487;28;20481;-68
2021/12/08 10:57:50;;;;;;;21.47;19.40;;;7.20;99.90;;;;;;5049719;28;20474;-71
2021/12/08 11:00:27;;;;;;;22.33;20.63;;;7.20;99.90;;;;;;5048941;28;20644;-70
2021/12/08 11:02:56;;;;;;;21.43;19.13;;;7.30;99.90;;;;;;5046020;28;20493;-69
2021/12/08 11:05:48;;;;;;;19.83;18.23;;;7.30;99.90;;;;;;5049725;28;20457;-71
2021/12/08 11:08:25;;;;;;;22.43;20.33;;;7.30;99.90;;;;;;5046028;28;20580;-71
2021/12/08 11:10:54;;;;;;;21.10;19.33;;;7.30;99.90;;;;;;5046462;28;20502;-68
2021/12/08 11:13:25;;;;;;;24.90;22.80;;;7.30;99.90;;;;;;5050301;28;20548;-71
2021/12/08 11:16:02;;;;;;;28.27;22.00;;;7.30;99.90;;;;;;5045947;28;20533;-69
2021/12/08 11:18:30;;;;;;;26.70;21.60;;;7.30;99.90;;;;;;5054435;28;20469;-69
2021/12/08 11:21:00;;;;;;;24.30;21.63;;;7.20;99.90;;;;;;5054578;28;20588;-68
2021/12/08 11:23:40;;;;;;;21.33;19.53;;;7.30;99.90;;;;;;5051849;28;20467;-68
2021/12/08 11:26:24;;;;;;;18.27;16.83;;;7.50;99.90;;;;;;5045744;28;20467;-69
2021/12/08 11:29:00;;;;;;;18.30;16.90;;;7.60;99.90;;;;;;5053490;28;20882;-68
2021/12/08 11:31:35;;;;;;;19.30;17.60;;;7.70;99.90;;;;;;5061384;28;20461;-69
2021/12/08 11:34:05;;;;;;;18.23;16.83;;;7.70;99.90;;;;;;5053292;28;20466;-68
2021/12/08 11:36:35;;;;;;;18.37;17.27;;;7.90;99.90;;;;;;5050027;28;20485;-68
2021/12/08 11:39:08;;;;;;;19.07;17.53;;;8.00;99.90;;;;;;5052873;28;20471;-68
2021/12/08 11:41:38;;;;;;;18.37;16.97;;;8.30;99.90;;;;;;5057611;28;20497;-71
2021/12/08 11:44:11;;;;;;;18.47;16.90;;;8.40;99.90;;;;;;5055090;28;20986;-69
2021/12/08 11:46:43;;;;;;;24.53;17.90;;;8.40;99.90;;;;;;5048864;28;20976;-68
2021/12/08 11:49:11;;;;;;;17.63;16.33;;;8.50;99.90;;;;;;5050322;28;20509;-71
2021/12/08 11:52:00;;;;;;;19.30;17.67;;;8.40;99.90;;;;;;5052035;28;20822;-67
2021/12/08 11:54:34;;;;;;;20.30;17.43;;;8.80;99.90;;;;;;5054119;28;20847;-70
2021/12/08 11:57:08;;;;;;;18.27;16.50;;;9.30;99.90;;;;;;5048984;28;20460;-71
2021/12/08 11:59:44;;;;;;;22.13;16.93;;;9.50;99.90;;;;;;5057432;28;21285;-68
2021/12/08 12:02:13;;;;;;;18.70;17.07;;;9.70;99.90;;;;;;5055061;28;20471;-69
2021/12/08 12:04:41;;;;;;;19.50;17.47;;;10.00;99.90;;;;;;5049722;28;20462;-72
2021/12/08 12:07:10;;;;;;;20.10;17.43;;;10.10;99.90;;;;;;5045524;28;20464;-68
2021/12/08 12:09:37;;;;;;;17.47;15.90;;;10.20;99.90;;;;;;5052476;28;20466;-69
2021/12/08 12:12:04;;;;;;;16.67;15.37;;;10.40;99.90;;;;;;5051021;28;20462;-71
2021/12/08 12:14:31;;;;;;;17.50;16.20;;;10.80;99.90;;;;;;5049803;28;20989;-70
2021/12/08 12:16:58;;;;;;;19.80;16.20;;;10.90;99.90;;;;;;5058611;28;20464;-69
2021/12/08 12:19:29;;;;;;;18.43;16.63;;;10.60;99.90;;;;;;5048621;28;20478;-69
2021/12/08 12:22:02;;;;;;;19.50;16.97;;;10.60;99.90;;;;;;5053135;28;20554;-72
2021/12/08 12:24:44;;;;;;;18.13;16.50;;;10.70;99.90;;;;;;5055538;28;20475;-69
2021/12/08 12:27:27;;;;;;;17.80;16.27;;;10.30;99.90;;;;;;5051152;28;20471;-68
2021/12/08 12:30:07;;;;;;;17.20;15.80;;;10.00;99.90;;;;;;5051067;28;20519;-69
2021/12/08 12:32:42;;;;;;;17.77;16.17;;;9.70;99.90;;;;;;5047771;28;20471;-71
2021/12/08 12:35:18;;;;;;;21.77;16.73;;;9.60;99.90;;;;;;5045224;28;20465;-72
2021/12/08 12:37:46;;;;;;;19.27;17.40;;;9.20;99.90;;;;;;5047321;28;20475;-72
2021/12/08 12:40:17;;;;;;;25.40;18.10;;;9.00;99.90;;;;;;5050588;28;20486;-71
2021/12/08 12:42:54;;;;;;;19.67;17.97;;;9.30;99.90;;;;;;5054776;28;21244;-69
2021/12/08 12:45:23;;;;;;;20.67;17.90;;;9.70;99.90;;;;;;5050188;28;20491;-73
2021/12/08 12:48:08;;;;;;;17.83;16.37;;;10.60;99.90;;;;;;5046934;28;20509;-71
2021/12/08 12:53:40;;;;;;;18.20;16.53;;;11.20;99.90;;;;;;5074544;27;20548;-74
2021/12/08 12:56:09;;;;;;;16.80;15.80;;;11.20;99.90;;;;;;5064499;28;20462;-68
2021/12/08 12:58:44;;;;;;;18.67;16.97;;;10.90;99.90;;;;;;5069968;28;20913;-70
2021/12/08 13:01:13;;;;;;;17.23;16.00;;;10.40;99.90;;;;;;5059527;28;20542;-69
2021/12/08 13:03:47;;;;;;;17.90;16.80;;;9.90;99.90;;;;;;5060706;28;20466;-69
2021/12/08 13:06:15;;;;;;;17.47;16.27;;;9.70;99.90;;;;;;5061698;28;20453;-70
2021/12/08 13:08:46;;;;;;;17.50;16.20;;;9.40;99.90;;;;;;5069448;28;20503;-73
2021/12/08 13:11:41;;;;;;;16.43;15.43;;;9.10;99.90;;;;;;5067536;28;20461;-71
2021/12/08 13:14:20;;;;;;;17.07;15.77;;;9.10;99.90;;;;;;5062349;28;20461;-71
2021/12/08 13:16:46;;;;;;;16.47;15.50;;;9.30;99.90;;;;;;5068867;28;20551;-70
2021/12/08 13:19:13;;;;;;;17.50;16.40;;;9.70;99.90;;;;;;5070971;28;20462;-69
2021/12/08 13:21:43;;;;;;;17.03;15.60;;;9.90;99.90;;;;;;5072867;28;20458;-73
2021/12/08 13:24:37;;;;;;;16.07;15.27;;;9.80;99.90;;;;;;5063155;28;20489;-69
2021/12/08 13:27:06;;;;;;;17.40;16.20;;;9.80;99.90;;;;;;5064888;28;20469;-71
2021/12/08 13:29:36;;;;;;;17.60;16.23;;;9.70;99.90;;;;;;5058899;28;21279;-71
2021/12/08 13:32:11;;;;;;;18.00;16.50;;;9.60;99.90;;;;;;5058643;28;20494;-69
2021/12/08 13:34:41;;;;;;;18.40;17.30;;;9.50;99.90;;;;;;5069373;28;20461;-69
2021/12/08 13:37:20;;;;;;;17.93;16.73;;;9.60;99.90;;;;;;5066546;28;20478;-71